Time;durP1;ratioP1;P1;durP2;ratioP2;P2;SDS_P1;SDS_P2;PMS_P1;PMS_P2;Temp;Humidity;BMP_temperature;BMP_pressure;BME280_temperature;BME280_humidity;BME280_pressure;Samples;Min_cycle;Max_cycle;Signal;HPM_P1;HPM_P2
2021/03/10 00:03:59;;;;;;;89.43;49.83;;;;;6.10;101384.00;;;;10523839;28;20220;-75
2021/03/10 00:09:02;;;;;;;82.20;47.87;;;;;6.00;101385.00;;;;10507306;28;20204;-75
2021/03/10 00:14:04;;;;;;;80.63;48.67;;;;;6.00;101383.00;;;;10523997;28;20216;-75
2021/03/10 00:19:05;;;;;;;80.87;45.97;;;;;6.00;101386.00;;;;10522070;28;20250;-75
2021/03/10 00:24:06;;;;;;;75.37;43.87;;;;;5.90;101383.00;;;;10505647;28;20219;-75
2021/03/10 00:29:08;;;;;;;74.43;44.57;;;;;6.00;101390.00;;;;10489575;28;20271;-75
2021/03/10 00:34:09;;;;;;;82.27;48.40;;;;;6.00;101376.00;;;;10506609;28;20189;-75
2021/03/10 00:39:11;;;;;;;82.23;46.60;;;;;6.00;101370.00;;;;10523042;28;20261;-75
2021/03/10 00:44:12;;;;;;;80.63;47.23;;;;;5.90;101368.00;;;;10489153;28;20185;-75
2021/03/10 00:49:13;;;;;;;76.27;46.20;;;;;5.80;101371.00;;;;10522545;28;20185;-75
2021/03/10 00:54:14;;;;;;;64.70;42.77;;;;;5.60;101360.00;;;;10539385;28;20192;-75
2021/03/10 00:59:16;;;;;;;66.13;42.17;;;;;5.50;101376.00;;;;10539391;28;20201;-75
2021/03/10 01:04:17;;;;;;;69.50;42.13;;;;;5.30;101385.00;;;;10504755;28;20240;-75
2021/03/10 01:09:19;;;;;;;73.20;46.00;;;;;5.20;101382.00;;;;10488360;28;20651;-75
2021/03/10 01:14:20;;;;;;;78.67;43.60;;;;;5.00;101366.00;;;;10521971;28;20250;-75
2021/03/10 01:19:21;;;;;;;79.00;44.03;;;;;4.90;101370.00;;;;10479743;28;20209;-75
2021/03/10 01:24:22;;;;;;;67.77;42.93;;;;;4.80;101376.00;;;;10500182;28;20181;-75
2021/03/10 01:29:24;;;;;;;73.43;43.17;;;;;4.60;101374.00;;;;10504441;28;20231;-75
2021/03/10 01:34:25;;;;;;;79.27;45.20;;;;;4.50;101367.00;;;;10531534;28;20228;-76
2021/03/10 01:39:26;;;;;;;79.23;45.20;;;;;4.40;101365.00;;;;10521154;28;20247;-76
2021/03/10 01:44:28;;;;;;;77.30;43.50;;;;;4.40;101374.00;;;;10521285;28;20220;-77
2021/03/10 01:49:29;;;;;;;74.10;43.23;;;;;4.30;101360.00;;;;10534292;28;20285;-75
2021/03/10 01:54:31;;;;;;;77.20;42.87;;;;;4.10;101350.00;;;;10503867;28;20279;-75
2021/03/10 01:59:32;;;;;;;72.90;41.70;;;;;4.00;101365.00;;;;10478458;28;20201;-75
2021/03/10 02:04:37;;;;;;;71.57;41.77;;;;;3.90;101350.00;;;;10504061;28;20565;-75
2021/03/10 02:09:56;;;;;;;72.27;41.37;;;;;3.80;101360.00;;;;10520026;28;20267;-75
2021/03/10 02:15:10;;;;;;;86.27;44.03;;;;;3.80;101344.00;;;;10494490;28;20311;-75
2021/03/10 02:20:25;;;;;;;75.57;42.27;;;;;3.80;101329.00;;;;10478224;28;20292;-75
2021/03/10 02:25:37;;;;;;;90.53;41.77;;;;;3.80;101332.00;;;;10465265;28;20593;-75
2021/03/10 02:30:42;;;;;;;93.50;44.03;;;;;3.80;101324.00;;;;10503156;28;20635;-75
2021/03/10 02:35:50;;;;;;;84.73;42.13;;;;;3.90;101322.00;;;;10486357;28;20208;-75
2021/03/10 02:40:53;;;;;;;98.63;43.13;;;;;3.90;101336.00;;;;10474030;28;20209;-75
2021/03/10 02:45:55;;;;;;;85.97;42.37;;;;;4.00;101343.00;;;;10487355;28;20193;-75
2021/03/10 02:51:06;;;;;;;81.93;41.60;;;;;3.90;101332.00;;;;10527286;28;20216;-75
2021/03/10 02:56:11;;;;;;;83.00;41.87;;;;;3.90;101313.00;;;;10526665;28;20219;-75
2021/03/10 03:01:13;;;;;;;82.70;39.87;;;;;3.80;101317.00;;;;10522185;28;20201;-75
2021/03/10 03:06:15;;;;;;;69.27;37.27;;;;;3.80;101319.00;;;;10509822;28;20193;-75
2021/03/10 03:11:17;;;;;;;69.77;37.03;;;;;3.80;101318.00;;;;10530576;28;20627;-75
2021/03/10 03:16:19;;;;;;;67.10;37.07;;;;;3.80;101308.00;;;;10492933;28;20682;-75
2021/03/10 03:21:22;;;;;;;67.97;36.13;;;;;3.90;101309.00;;;;10509134;28;20209;-75
2021/03/10 03:26:24;;;;;;;62.60;34.57;;;;;3.80;101301.00;;;;10509379;28;20204;-76
2021/03/10 03:31:27;;;;;;;74.87;34.93;;;;;3.80;101300.00;;;;10525112;28;20238;-75
2021/03/10 03:36:29;;;;;;;63.20;33.17;;;;;3.80;101295.00;;;;10525679;28;20223;-75
2021/03/10 03:41:33;;;;;;;69.83;33.80;;;;;3.90;101295.00;;;;10525759;28;20683;-75
2021/03/10 03:46:34;;;;;;;62.97;31.37;;;;;3.90;101304.00;;;;10525477;28;20189;-75
2021/03/10 03:51:36;;;;;;;67.57;29.90;;;;;4.00;101310.00;;;;10524549;28;20632;-75
2021/03/10 03:56:37;;;;;;;54.20;28.60;;;;;3.90;101307.00;;;;10490724;28;20196;-75
2021/03/10 04:01:38;;;;;;;59.83;30.37;;;;;3.90;101300.00;;;;10482163;28;20255;-75
2021/03/10 04:06:48;;;;;;;53.37;29.00;;;;;4.00;101297.00;;;;10502211;28;20195;-75
2021/03/10 04:11:49;;;;;;;53.73;29.23;;;;;4.10;101289.00;;;;10481895;28;20217;-75
2021/03/10 04:16:50;;;;;;;56.00;29.73;;;;;4.10;101292.00;;;;10485928;28;20189;-75
2021/03/10 04:21:52;;;;;;;57.93;29.00;;;;;4.10;101300.00;;;;10523217;28;20279;-75
2021/03/10 04:26:53;;;;;;;65.10;30.93;;;;;4.10;101304.00;;;;10523212;28;20193;-75
2021/03/10 04:31:55;;;;;;;49.93;28.23;;;;;4.10;101294.00;;;;10506014;28;20271;-75
2021/03/10 04:36:58;;;;;;;57.00;29.00;;;;;4.10;101291.00;;;;10505513;28;20203;-75
2021/03/10 04:42:02;;;;;;;62.00;31.17;;;;;4.10;101307.00;;;;10489324;28;20231;-75
2021/03/10 04:47:04;;;;;;;51.67;29.90;;;;;4.10;101302.00;;;;10505703;28;20219;-75
2021/03/10 04:52:05;;;;;;;57.73;31.30;;;;;4.10;101307.00;;;;10489083;28;20668;-76
2021/03/10 04:57:07;;;;;;;56.50;31.73;;;;;4.10;101319.00;;;;10521414;28;20258;-76
2021/03/10 05:02:08;;;;;;;61.10;32.23;;;;;4.00;101310.00;;;;10521797;28;20734;-76
2021/03/10 05:07:10;;;;;;;65.70;32.50;;;;;4.00;101304.00;;;;10521768;28;20224;-76
2021/03/10 05:12:11;;;;;;;58.90;32.03;;;;;4.10;101302.00;;;;10549597;28;20231;-76
2021/03/10 05:17:13;;;;;;;52.03;30.63;;;;;4.00;101302.00;;;;10507654;28;20200;-76
2021/03/10 05:22:15;;;;;;;53.17;30.67;;;;;3.90;101283.00;;;;10488113;28;20207;-76
2021/03/10 05:27:17;;;;;;;59.33;30.20;;;;;3.90;101294.00;;;;10504033;28;20221;-76
2021/03/10 05:32:18;;;;;;;59.67;29.77;;;;;3.90;101290.00;;;;10521631;28;20220;-76
2021/03/10 05:37:20;;;;;;;53.40;27.80;;;;;3.80;101284.00;;;;10487427;28;20220;-75
2021/03/10 05:42:21;;;;;;;56.33;31.13;;;;;3.80;101291.00;;;;10504236;28;20193;-75
2021/03/10 05:47:22;;;;;;;54.80;30.33;;;;;3.80;101290.00;;;;10555012;28;20242;-75
2021/03/10 05:52:24;;;;;;;53.77;29.57;;;;;3.80;101281.00;;;;10520832;28;20584;-75
2021/03/10 05:57:25;;;;;;;52.67;29.13;;;;;3.80;101289.00;;;;10520599;28;20193;-75
2021/03/10 06:02:27;;;;;;;47.77;27.13;;;;;3.80;101284.00;;;;10477405;28;20262;-77
2021/03/10 06:07:30;;;;;;;58.00;32.77;;;;;3.80;101282.00;;;;10503524;28;20239;-76
2021/03/10 06:12:40;;;;;;;57.90;30.50;;;;;3.80;101276.00;;;;10503181;28;20288;-75
2021/03/10 06:17:44;;;;;;;55.20;29.80;;;;;3.80;101276.00;;;;10503698;28;20552;-76
2021/03/10 06:22:45;;;;;;;67.93;32.63;;;;;3.90;101265.00;;;;10507348;28;20191;-75
2021/03/10 06:28:05;;;;;;;69.23;32.57;;;;;3.90;101263.00;;;;10494913;28;20192;-75
2021/03/10 06:33:08;;;;;;;73.07;34.73;;;;;4.00;101258.00;;;;10527642;28;20188;-76
2021/03/10 06:38:12;;;;;;;80.40;33.40;;;;;4.10;101260.00;;;;10511562;28;20293;-77
2021/03/10 06:43:14;;;;;;;83.73;33.53;;;;;4.20;101254.00;;;;10527188;28;20268;-76
2021/03/10 06:48:22;;;;;;;77.80;33.70;;;;;4.30;101255.00;;;;10527213;28;20204;-76
2021/03/10 06:53:30;;;;;;;78.37;33.93;;;;;4.30;101247.00;;;;10527476;28;20969;-76
2021/03/10 06:58:33;;;;;;;82.30;32.63;;;;;4.40;101254.00;;;;10493299;28;20224;-76
2021/03/10 07:03:34;;;;;;;82.00;33.20;;;;;4.50;101262.00;;;;10490481;28;20201;-76
2021/03/10 07:08:36;;;;;;;85.93;33.90;;;;;4.70;101267.00;;;;10509645;28;20193;-76
2021/03/10 07:13:38;;;;;;;83.20;34.80;;;;;4.80;101261.00;;;;10539626;28;20228;-75
2021/03/10 07:18:40;;;;;;;77.33;32.67;;;;;4.90;101258.00;;;;10497241;28;20208;-76
2021/03/10 07:23:49;;;;;;;71.33;30.03;;;;;5.00;101264.00;;;;10535330;28;20239;-76
2021/03/10 07:28:55;;;;;;;75.00;31.37;;;;;5.10;101270.00;;;;10472487;28;20225;-76
2021/03/10 07:33:57;;;;;;;77.33;31.67;;;;;5.30;101272.00;;;;10478389;28;20189;-76
2021/03/10 07:38:58;;;;;;;73.93;30.50;;;;;5.50;101276.00;;;;10495179;28;20216;-76
2021/03/10 07:44:02;;;;;;;66.13;30.30;;;;;5.60;101270.00;;;;10517166;28;20220;-76
2021/03/10 07:49:17;;;;;;;73.73;30.63;;;;;5.70;101273.00;;;;10479315;28;20194;-76
2021/03/10 07:54:25;;;;;;;72.53;30.40;;;;;5.80;101266.00;;;;10503851;28;20310;-76
2021/03/10 07:59:27;;;;;;;55.50;26.83;;;;;6.00;101259.00;;;;10505018;28;20205;-76
2021/03/10 08:04:28;;;;;;;51.50;27.13;;;;;6.10;101267.00;;;;10551472;28;20291;-76
2021/03/10 08:09:31;;;;;;;41.40;22.27;;;;;6.20;101261.00;;;;10553247;28;20195;-75
2021/03/10 08:14:53;;;;;;;33.77;20.73;;;;;6.40;101248.00;;;;10529535;28;20261;-75
2021/03/10 08:19:54;;;;;;;34.63;19.57;;;;;6.50;101258.00;;;;10510599;28;20671;-75
2021/03/10 08:24:58;;;;;;;25.83;17.53;;;;;6.70;101251.00;;;;10488759;28;20699;-75
2021/03/10 08:30:02;;;;;;;30.93;17.43;;;;;6.90;101250.00;;;;10534078;28;20276;-75
2021/03/10 08:35:10;;;;;;;26.20;17.40;;;;;7.00;101251.00;;;;10504542;28;20197;-75
2021/03/10 08:40:18;;;;;;;24.30;15.20;;;;;7.20;101234.00;;;;10506340;28;20309;-75
2021/03/10 08:45:20;;;;;;;18.27;12.83;;;;;7.50;101240.00;;;;10517171;28;20239;-75
2021/03/10 08:50:29;;;;;;;16.03;11.33;;;;;8.00;101239.00;;;;10539867;28;20181;-75
2021/03/10 08:55:35;;;;;;;16.33;11.70;;;;;8.40;101236.00;;;;10519808;28;20184;-75
2021/03/10 09:00:38;;;;;;;16.40;11.20;;;;;8.60;101246.00;;;;10531310;28;20217;-75
2021/03/10 09:05:41;;;;;;;18.23;11.70;;;;;8.90;101230.00;;;;10492750;28;20200;-75
2021/03/10 09:10:48;;;;;;;17.10;11.10;;;;;9.20;101229.00;;;;10539974;28;20672;-75
2021/03/10 09:16:10;;;;;;;14.57;10.20;;;;;9.40;101216.00;;;;10478763;28;20973;-75
2021/03/10 09:21:20;;;;;;;14.43;10.37;;;;;9.60;101212.00;;;;10480544;28;20232;-76
2021/03/10 09:26:34;;;;;;;14.87;9.73;;;;;9.80;101202.00;;;;10517818;28;20192;-76
2021/03/10 09:31:36;;;;;;;15.77;9.43;;;;;10.20;101205.00;;;;10519894;28;20186;-75
2021/03/10 09:36:41;;;;;;;13.90;8.83;;;;;10.50;101181.00;;;;10502160;28;20238;-76
2021/03/10 09:41:53;;;;;;;10.90;8.03;;;;;10.60;101170.00;;;;10478607;28;20595;-75
2021/03/10 09:47:15;;;;;;;10.67;8.27;;;;;11.00;101166.00;;;;10480318;28;20197;-75
2021/03/10 09:52:30;;;;;;;10.20;7.63;;;;;11.40;101166.00;;;;10526255;28;20196;-75
2021/03/10 09:57:31;;;;;;;13.30;8.47;;;;;11.30;101150.00;;;;10499964;28;20591;-75
2021/03/10 10:02:45;;;;;;;13.00;8.77;;;;;11.50;101150.00;;;;10535492;28;20227;-76
2021/03/10 10:07:49;;;;;;;13.27;9.37;;;;;11.80;101122.00;;;;10548533;28;20845;-74
2021/03/10 10:12:54;;;;;;;15.57;10.83;;;;;11.80;101121.00;;;;10496776;28;20579;-74
2021/03/10 10:18:08;;;;;;;13.07;10.63;;;;;11.70;101121.00;;;;10502861;28;20207;-75
2021/03/10 10:23:17;;;;;;;17.03;12.03;;;;;11.70;101124.00;;;;10461801;28;20193;-75
2021/03/10 10:28:29;;;;;;;17.80;13.83;;;;;11.90;101123.00;;;;10520789;28;20234;-75
2021/03/10 10:33:31;;;;;;;20.53;14.13;;;;;11.90;101117.00;;;;10510695;28;20200;-75
2021/03/10 10:38:34;;;;;;;16.70;14.10;;;;;12.10;101110.00;;;;10503702;28;20208;-76
2021/03/10 10:43:39;;;;;;;19.10;15.03;;;;;12.00;101084.00;;;;10490723;28;20558;-75
2021/03/10 10:48:45;;;;;;;17.17;14.13;;;;;12.10;101066.00;;;;10530019;28;20670;-74
2021/03/10 10:53:55;;;;;;;17.10;13.63;;;;;13.20;101079.00;;;;10529456;28;20215;-75
2021/03/10 10:58:56;;;;;;;16.63;13.37;;;;;13.50;101055.00;;;;10498884;28;20250;-75
2021/03/10 11:04:04;;;;;;;20.03;13.17;;;;;13.40;101053.00;;;;10530200;28;20244;-75
2021/03/10 11:09:06;;;;;;;16.60;12.87;;;;;13.40;101043.00;;;;10501040;28;20516;-75
2021/03/10 11:14:08;;;;;;;19.03;13.67;;;;;13.30;101030.00;;;;10511536;28;20219;-75
2021/03/10 11:19:18;;;;;;;16.60;12.13;;;;;13.70;101012.00;;;;10499054;28;20292;-75
2021/03/10 11:24:23;;;;;;;24.13;14.57;;;;;14.10;100999.00;;;;10501861;28;20235;-75
2021/03/10 11:29:26;;;;;;;15.20;12.73;;;;;14.80;100998.00;;;;10491252;28;20640;-74
2021/03/10 11:34:29;;;;;;;21.67;13.53;;;;;14.30;100985.00;;;;10496735;28;20275;-75
2021/03/10 11:39:31;;;;;;;18.97;14.27;;;;;14.30;100988.00;;;;10529014;28;20573;-74
2021/03/10 11:44:33;;;;;;;19.50;14.40;;;;;14.30;100977.00;;;;10495162;28;20216;-74
2021/03/10 11:49:35;;;;;;;16.50;12.87;;;;;13.90;100963.00;;;;10503426;28;20189;-74
2021/03/10 11:54:36;;;;;;;16.60;12.70;;;;;13.80;100959.00;;;;10500115;28;20555;-74
2021/03/10 11:59:38;;;;;;;26.13;14.13;;;;;14.20;100946.00;;;;10500711;28;20211;-74
2021/03/10 12:04:47;;;;;;;19.37;13.87;;;;;14.70;100945.00;;;;10505713;28;20292;-74
2021/03/10 12:09:49;;;;;;;18.43;13.70;;;;;14.90;100919.00;;;;10502955;28;20192;-74
2021/03/10 12:14:51;;;;;;;20.10;13.90;;;;;14.90;100921.00;;;;10497909;28;20695;-74
2021/03/10 12:19:53;;;;;;;18.27;14.33;;;;;14.60;100914.00;;;;10496118;28;20605;-74
2021/03/10 12:24:54;;;;;;;20.20;14.97;;;;;14.40;100907.00;;;;10543577;28;20203;-74
2021/03/10 12:29:57;;;;;;;20.63;13.20;;;;;14.50;100897.00;;;;10505990;28;20193;-73
2021/03/10 12:35:05;;;;;;;22.57;15.37;;;;;14.30;100893.00;;;;10478962;28;20189;-74
2021/03/10 12:40:07;;;;;;;16.53;12.53;;;;;14.40;100868.00;;;;10490837;28;20201;-74
2021/03/10 12:45:10;;;;;;;17.50;13.90;;;;;14.40;100860.00;;;;10540331;28;20200;-74
2021/03/10 12:50:12;;;;;;;19.73;13.27;;;;;14.20;100874.00;;;;10520334;28;20196;-74
2021/03/10 12:55:14;;;;;;;22.00;13.90;;;;;14.00;100847.00;;;;10490903;28;20197;-74
2021/03/10 13:00:16;;;;;;;17.07;12.67;;;;;13.90;100850.00;;;;10481561;28;20205;-74
2021/03/10 13:05:17;;;;;;;20.13;14.17;;;;;14.00;100844.00;;;;10515661;28;20324;-75
2021/03/10 13:10:20;;;;;;;19.23;12.97;;;;;14.10;100833.00;;;;10503826;28;20264;-74
2021/03/10 13:15:22;;;;;;;18.03;14.37;;;;;14.20;100827.00;;;;10504541;28;20220;-74
2021/03/10 13:20:23;;;;;;;20.27;14.77;;;;;14.10;100829.00;;;;10518635;28;20291;-74
2021/03/10 13:25:25;;;;;;;20.23;14.80;;;;;13.70;100815.00;;;;10517215;28;20192;-74
2021/03/10 13:30:26;;;;;;;19.77;13.77;;;;;13.50;100812.00;;;;10509327;28;20201;-74
2021/03/10 13:35:28;;;;;;;25.43;16.30;;;;;13.40;100802.00;;;;10504403;28;20200;-74
2021/03/10 13:40:29;;;;;;;21.77;16.33;;;;;13.40;100791.00;;;;10547512;28;20197;-74
2021/03/10 13:45:31;;;;;;;21.67;16.10;;;;;13.20;100801.00;;;;10511808;28;20656;-74
2021/03/10 13:50:32;;;;;;;23.73;16.40;;;;;12.90;100783.00;;;;10461338;28;20197;-75
2021/03/10 13:55:34;;;;;;;21.90;16.00;;;;;12.70;100781.00;;;;10507576;28;20267;-74
2021/03/10 14:00:36;;;;;;;24.33;17.27;;;;;12.70;100778.00;;;;10496700;28;20204;-74
2021/03/10 14:05:37;;;;;;;27.30;16.13;;;;;12.70;100765.00;;;;10508004;28;20640;-74
2021/03/10 14:10:39;;;;;;;22.17;16.77;;;;;12.80;100756.00;;;;10535245;28;20208;-74
2021/03/10 14:15:40;;;;;;;29.53;15.53;;;;;12.90;100738.00;;;;10504818;28;20677;-74
2021/03/10 14:20:42;;;;;;;22.10;13.57;;;;;12.80;100715.00;;;;10518809;28;20201;-74
2021/03/10 14:25:45;;;;;;;23.43;16.07;;;;;12.80;100725.00;;;;10482318;28;20196;-74
2021/03/10 14:30:46;;;;;;;20.37;15.53;;;;;12.80;100707.00;;;;10497608;28;20189;-75
2021/03/10 14:35:48;;;;;;;20.10;13.00;;;;;12.80;100708.00;;;;10485229;28;20264;-75
2021/03/10 14:40:49;;;;;;;24.03;16.17;;;;;12.70;100706.00;;;;10516492;28;20197;-75
2021/03/10 14:45:51;;;;;;;22.20;15.83;;;;;12.60;100707.00;;;;10530180;28;20192;-75
2021/03/10 14:50:52;;;;;;;24.27;16.13;;;;;12.60;100699.00;;;;10530865;28;20251;-76
2021/03/10 14:55:53;;;;;;;24.40;15.83;;;;;12.60;100696.00;;;;10533061;28;20197;-75
2021/03/10 15:00:55;;;;;;;28.30;17.50;;;;;12.60;100699.00;;;;10512238;28;20221;-75
2021/03/10 15:05:56;;;;;;;23.10;16.40;;;;;12.50;100683.00;;;;10502343;28;20722;-75
2021/03/10 15:10:58;;;;;;;21.70;16.10;;;;;12.40;100669.00;;;;10533344;28;20205;-75
2021/03/10 15:16:02;;;;;;;23.37;16.03;;;;;12.30;100686.00;;;;10538453;28;20193;-75
2021/03/10 15:21:04;;;;;;;23.40;15.90;;;;;12.10;100677.00;;;;10559680;28;20215;-74
2021/03/10 15:26:05;;;;;;;27.10;16.67;;;;;12.10;100661.00;;;;10524728;28;20208;-75
2021/03/10 15:31:07;;;;;;;23.33;16.77;;;;;12.10;100640.00;;;;10539754;28;20187;-75
2021/03/10 15:36:09;;;;;;;23.53;15.50;;;;;11.90;100629.00;;;;10541262;28;20680;-75
2021/03/10 15:41:12;;;;;;;26.10;16.40;;;;;11.70;100619.00;;;;10507854;28;20671;-75
2021/03/10 15:46:13;;;;;;;22.20;16.73;;;;;11.50;100588.00;;;;10491906;28;20748;-75
2021/03/10 15:51:14;;;;;;;21.87;15.30;;;;;11.40;100598.00;;;;10524072;28;20584;-75
2021/03/10 15:56:16;;;;;;;22.23;15.70;;;;;11.20;100578.00;;;;10522918;28;20640;-75
2021/03/10 16:01:20;;;;;;;22.43;14.70;;;;;11.10;100553.00;;;;10510813;27;20209;-75
2021/03/10 16:06:23;;;;;;;26.63;15.57;;;;;11.00;100544.00;;;;10506898;28;20216;-75
2021/03/10 16:11:25;;;;;;;23.60;15.93;;;;;10.90;100566.00;;;;10515039;28;20240;-75
2021/03/10 16:16:27;;;;;;;21.40;14.27;;;;;10.80;100561.00;;;;10528159;28;20216;-75
2021/03/10 16:21:29;;;;;;;21.03;14.17;;;;;10.80;100556.00;;;;10495433;28;20208;-75
2021/03/10 16:26:30;;;;;;;22.17;15.53;;;;;10.80;100543.00;;;;10508025;28;20189;-75
2021/03/10 16:31:32;;;;;;;18.67;12.80;;;;;10.80;100539.00;;;;10519506;28;20196;-74
2021/03/10 16:36:34;;;;;;;22.37;15.47;;;;;10.80;100543.00;;;;10465473;28;20192;-75
2021/03/10 16:41:36;;;;;;;24.23;16.33;;;;;10.70;100532.00;;;;10506445;28;20245;-75
2021/03/10 16:46:38;;;;;;;25.43;16.40;;;;;10.60;100506.00;;;;10508001;28;20189;-75
2021/03/10 16:51:40;;;;;;;26.17;16.77;;;;;10.50;100509.00;;;;10502772;28;20280;-75
2021/03/10 16:56:41;;;;;;;21.60;15.00;;;;;10.30;100504.00;;;;10509062;28;20196;-74
2021/03/10 17:01:43;;;;;;;22.37;13.57;;;;;10.00;100493.00;;;;10514601;28;20692;-74
2021/03/10 17:06:44;;;;;;;22.93;13.83;;;;;9.90;100469.00;;;;10514454;28;20193;-74
2021/03/10 17:11:45;;;;;;;25.03;15.13;;;;;9.60;100463.00;;;;10519425;28;20219;-74
2021/03/10 17:16:48;;;;;;;30.27;16.03;;;;;9.50;100460.00;;;;10495376;28;20189;-74
2021/03/10 17:21:49;;;;;;;25.60;16.70;;;;;9.40;100462.00;;;;10492094;28;20942;-74
2021/03/10 17:26:51;;;;;;;20.17;13.53;;;;;9.30;100479.00;;;;10519407;28;20220;-74
2021/03/10 17:31:52;;;;;;;27.10;16.43;;;;;9.10;100456.00;;;;10494470;28;20219;-74
2021/03/10 17:36:53;;;;;;;25.27;15.70;;;;;8.80;100461.00;;;;10497401;28;20184;-74
2021/03/10 17:41:55;;;;;;;27.13;18.00;;;;;8.70;100465.00;;;;10509448;28;20282;-75
2021/03/10 17:46:58;;;;;;;23.13;13.23;;;;;8.40;100462.00;;;;10484467;28;20200;-76
2021/03/10 17:52:02;;;;;;;27.97;17.57;;;;;8.10;100461.00;;;;10474067;28;20192;-75
2021/03/10 17:57:03;;;;;;;28.20;16.37;;;;;7.90;100478.00;;;;10518382;28;20185;-75
2021/03/10 18:02:05;;;;;;;26.80;17.17;;;;;7.70;100479.00;;;;10474550;28;20236;-75
2021/03/10 18:07:06;;;;;;;26.30;15.03;;;;;7.40;100486.00;;;;10488160;28;20194;-75
2021/03/10 18:12:08;;;;;;;24.07;13.40;;;;;7.20;100466.00;;;;10531698;28;20284;-75
2021/03/10 18:17:09;;;;;;;31.77;17.97;;;;;7.00;100465.00;;;;10515417;28;20184;-75
2021/03/10 18:22:12;;;;;;;29.63;17.40;;;;;6.80;100459.00;;;;10493915;28;20224;-75
2021/03/10 18:27:14;;;;;;;30.77;18.10;;;;;6.60;100449.00;;;;10492409;28;20279;-75
2021/03/10 18:32:20;;;;;;;28.60;17.63;;;;;6.60;100441.00;;;;10488392;28;21864;-74
2021/03/10 18:37:22;;;;;;;25.43;14.13;;;;;6.60;100437.00;;;;10505185;28;20196;-75
2021/03/10 18:42:24;;;;;;;32.27;17.03;;;;;6.70;100435.00;;;;10507663;28;20205;-74
2021/03/10 18:47:25;;;;;;;26.83;16.90;;;;;6.80;100436.00;;;;10481471;28;20219;-74
2021/03/10 18:52:27;;;;;;;32.77;18.33;;;;;6.90;100425.00;;;;10494174;28;20651;-74
2021/03/10 18:57:28;;;;;;;26.27;16.23;;;;;7.00;100406.00;;;;10514442;28;20178;-74
2021/03/10 19:02:30;;;;;;;23.60;14.50;;;;;7.00;100408.00;;;;10465195;28;20225;-74
2021/03/10 19:07:34;;;;;;;25.83;15.33;;;;;7.10;100404.00;;;;10500583;28;20247;-74
2021/03/10 19:12:36;;;;;;;23.23;14.53;;;;;7.10;100404.00;;;;10478096;28;20217;-74
2021/03/10 19:17:40;;;;;;;24.17;14.97;;;;;7.10;100431.00;;;;10524687;28;20984;-75
2021/03/10 19:22:41;;;;;;;25.70;15.40;;;;;7.00;100430.00;;;;10519399;28;20201;-75
2021/03/10 19:27:43;;;;;;;23.03;15.03;;;;;6.90;100429.00;;;;10513139;28;20196;-75
2021/03/10 19:32:46;;;;;;;28.47;16.70;;;;;6.80;100407.00;;;;10487079;28;20541;-75
2021/03/10 19:37:50;;;;;;;26.37;17.63;;;;;6.70;100377.00;;;;10494355;28;20686;-74
2021/03/10 19:42:51;;;;;;;27.00;15.73;;;;;6.70;100347.00;;;;10523871;28;20262;-75
2021/03/10 19:47:52;;;;;;;26.80;16.30;;;;;6.70;100334.00;;;;10495071;28;20185;-75
2021/03/10 19:52:54;;;;;;;23.10;15.40;;;;;6.80;100353.00;;;;10473077;28;20644;-75
2021/03/10 19:57:55;;;;;;;27.27;16.23;;;;;6.80;100352.00;;;;10483488;28;20198;-75
2021/03/10 20:02:57;;;;;;;23.27;13.60;;;;;6.80;100324.00;;;;10477242;28;20303;-75
2021/03/10 20:07:58;;;;;;;26.23;16.07;;;;;6.90;100335.00;;;;10502770;28;20197;-74
2021/03/10 20:13:03;;;;;;;27.30;17.20;;;;;6.90;100335.00;;;;10490463;28;20232;-75
2021/03/10 20:18:04;;;;;;;24.90;15.70;;;;;7.00;100326.00;;;;10507272;28;20784;-75
2021/03/10 20:23:12;;;;;;;24.23;15.97;;;;;7.10;100297.00;;;;10522811;28;20201;-75
2021/03/10 20:28:14;;;;;;;22.83;14.53;;;;;7.10;100291.00;;;;10540785;28;20530;-75
2021/03/10 20:33:15;;;;;;;23.37;14.17;;;;;7.10;100277.00;;;;10503791;28;20185;-76
2021/03/10 20:38:16;;;;;;;21.63;13.23;;;;;6.90;100269.00;;;;10520550;28;20717;-76
2021/03/10 20:43:38;;;;;;;21.43;12.67;;;;;6.80;100265.00;;;;10489674;28;20299;-76
2021/03/10 20:48:40;;;;;;;22.97;13.27;;;;;6.80;100244.00;;;;10479870;28;20197;-75
2021/03/10 20:53:42;;;;;;;22.83;12.20;;;;;6.90;100235.00;;;;10487764;28;20204;-76
2021/03/10 20:58:44;;;;;;;24.37;14.43;;;;;6.90;100227.00;;;;10460868;28;20713;-75
2021/03/10 21:03:45;;;;;;;23.93;13.63;;;;;7.00;100214.00;;;;10475563;28;20205;-75
2021/03/10 21:08:47;;;;;;;24.53;15.00;;;;;6.90;100181.00;;;;10455314;28;20353;-75
2021/03/10 21:13:49;;;;;;;27.63;15.67;;;;;7.00;100172.00;;;;10477884;28;20877;-76
2021/03/10 21:18:51;;;;;;;31.40;15.53;;;;;7.10;100155.00;;;;10474639;28;20713;-75
2021/03/10 21:23:53;;;;;;;25.37;16.10;;;;;7.10;100153.00;;;;10498141;28;20220;-75
2021/03/10 21:28:55;;;;;;;27.50;15.43;;;;;7.10;100140.00;;;;10471404;28;20712;-75
2021/03/10 21:33:57;;;;;;;23.87;14.73;;;;;7.20;100102.00;;;;10475136;28;20197;-75
2021/03/10 21:39:02;;;;;;;24.97;16.27;;;;;7.20;100107.00;;;;10483141;28;20208;-75
2021/03/10 21:44:05;;;;;;;22.30;14.70;;;;;7.30;100099.00;;;;10466701;28;20611;-75
2021/03/10 21:49:07;;;;;;;25.37;15.73;;;;;7.20;100104.00;;;;10465260;28;20264;-75
2021/03/10 21:54:17;;;;;;;26.27;15.20;;;;;7.10;100096.00;;;;10501071;28;20192;-75
2021/03/10 21:59:18;;;;;;;22.50;13.73;;;;;7.00;100073.00;;;;10476912;28;20283;-74
2021/03/10 22:04:20;;;;;;;21.83;13.77;;;;;7.00;100065.00;;;;10515610;28;20731;-75
2021/03/10 22:09:21;;;;;;;19.57;11.70;;;;;7.00;100043.00;;;;10519765;28;20185;-75
2021/03/10 22:14:22;;;;;;;29.53;17.80;;;;;7.00;100016.00;;;;10518724;28;20262;-75
2021/03/10 22:19:25;;;;;;;23.40;13.57;;;;;7.00;100004.00;;;;10502000;28;20201;-75
2021/03/10 22:24:38;;;;;;;20.83;14.43;;;;;6.90;99992.00;;;;10519347;28;20583;-75
2021/03/10 22:29:40;;;;;;;25.80;15.50;;;;;6.90;100012.00;;;;10481444;28;20705;-76
2021/03/10 22:34:41;;;;;;;20.30;13.47;;;;;6.90;100004.00;;;;10533041;28;20535;-75
2021/03/10 22:39:42;;;;;;;27.33;15.57;;;;;6.80;100008.00;;;;10485165;28;20570;-75
2021/03/10 22:44:44;;;;;;;25.10;15.60;;;;;6.70;99996.00;;;;10502486;28;20217;-75
2021/03/10 22:49:46;;;;;;;23.03;14.77;;;;;6.70;99981.00;;;;10503584;28;20196;-75
2021/03/10 22:54:59;;;;;;;15.77;10.40;;;;;6.80;99986.00;;;;10490972;28;20197;-75
2021/03/10 23:00:07;;;;;;;22.07;14.03;;;;;6.80;99974.00;;;;10489353;28;20692;-75
2021/03/10 23:05:09;;;;;;;23.63;14.57;;;;;6.90;99957.00;;;;10506015;28;20255;-75
2021/03/10 23:10:11;;;;;;;23.47;15.30;;;;;6.90;99950.00;;;;10543214;28;20628;-75
2021/03/10 23:15:17;;;;;;;22.40;15.77;;;;;6.90;99938.00;;;;10526359;28;20251;-75
2021/03/10 23:20:19;;;;;;;23.63;15.23;;;;;7.00;99940.00;;;;10503836;28;20205;-75
2021/03/10 23:25:26;;;;;;;18.77;11.70;;;;;7.10;99920.00;;;;10506509;28;20200;-75
2021/03/10 23:30:29;;;;;;;20.37;12.37;;;;;7.10;99929.00;;;;10544858;28;20605;-75
2021/03/10 23:35:30;;;;;;;19.93;13.50;;;;;7.20;99912.00;;;;10525812;28;20227;-75
2021/03/10 23:40:33;;;;;;;20.97;14.40;;;;;7.20;99911.00;;;;10535436;28;21048;-75
2021/03/10 23:45:36;;;;;;;20.93;14.23;;;;;7.20;99901.00;;;;10526156;28;20215;-75
2021/03/10 23:50:41;;;;;;;18.63;13.40;;;;;7.20;99878.00;;;;10508291;28;20280;-75
2021/03/10 23:55:50;;;;;;;14.90;9.20;;;;;7.20;99859.00;;;;10508531;28;20177;-75
